Time;durP1;ratioP1;P1;durP2;ratioP2;P2;SDS_P1;SDS_P2;PMS_P1;PMS_P2;Temp;Humidity;BMP_temperature;BMP_pressure;BME280_temperature;BME280_humidity;BME280_pressure;Samples;Min_cycle;Max_cycle;Signal;HPM_P1;HPM_P2
2021/07/25 00:00:59;;;;;;;29.75;20.33;;;;;;;22.17;60.77;100746.72;4938468;28;123864;-70
2021/07/25 00:03:27;;;;;;;29.92;20.60;;;;;;;22.17;60.78;100745.88;4937949;28;123269;-70
2021/07/25 00:05:54;;;;;;;30.50;20.10;;;;;;;22.17;60.76;100740.47;4933629;28;118445;-71
2021/07/25 00:08:21;;;;;;;28.90;19.30;;;;;;;22.15;60.88;100742.44;4933450;28;119873;-70
2021/07/25 00:10:48;;;;;;;29.02;19.35;;;;;;;22.14;60.81;100738.06;4925374;28;123711;-71
2021/07/25 00:13:16;;;;;;;31.45;20.30;;;;;;;22.12;61.13;100729.25;4927430;28;124287;-72
2021/07/25 00:15:44;;;;;;;31.15;20.42;;;;;;;22.11;61.04;100719.47;4929863;28;121911;-71
2021/07/25 00:18:12;;;;;;;30.42;19.70;;;;;;;22.11;61.14;100724.84;4931258;28;119090;-72
2021/07/25 00:20:39;;;;;;;32.70;20.08;;;;;;;22.11;61.21;100714.06;4931815;28;124809;-71
2021/07/25 00:23:07;;;;;;;29.95;19.77;;;;;;;22.10;61.20;100712.38;4929020;28;124301;-71
2021/07/25 00:25:35;;;;;;;28.73;19.75;;;;;;;22.08;61.11;100712.53;4930757;28;119519;-72
2021/07/25 00:28:02;;;;;;;28.92;19.90;;;;;;;22.08;61.16;100709.00;4930371;28;118819;-71
2021/07/25 00:30:30;;;;;;;29.95;20.67;;;;;;;22.10;61.27;100707.81;4936540;28;124264;-70
2021/07/25 00:32:57;;;;;;;30.63;20.02;;;;;;;22.10;61.29;100707.00;4929501;28;123896;-70
2021/07/25 00:35:24;;;;;;;29.73;19.35;;;;;;;22.11;61.53;100714.06;4929621;28;121076;-71
2021/07/25 00:37:52;;;;;;;27.67;18.48;;;;;;;22.11;61.32;100708.66;4927758;28;119792;-70
2021/07/25 00:40:39;;;;;;;30.15;19.35;;;;;;;22.10;61.20;100707.00;4928865;28;124253;-71
2021/07/25 00:43:07;;;;;;;28.02;18.45;;;;;;;22.10;61.31;100707.00;4928435;28;124959;-71
2021/07/25 00:45:34;;;;;;;28.35;18.33;;;;;;;22.10;61.38;100717.78;4929850;28;118423;-71
2021/07/25 00:48:03;;;;;;;27.52;17.42;;;;;;;22.09;61.30;100710.66;4928391;28;118155;-71
2021/07/25 00:50:31;;;;;;;27.45;17.10;;;;;;;22.06;61.11;100710.97;4929842;28;123928;-70
2021/07/25 00:52:58;;;;;;;24.83;16.08;;;;;;;22.06;61.37;100705.59;4930798;28;124741;-71
2021/07/25 00:55:27;;;;;;;24.52;17.05;;;;;;;22.05;61.40;100706.56;4929451;28;119862;-70
2021/07/25 00:57:55;;;;;;;24.58;16.50;;;;;;;22.05;61.45;100709.28;4926618;28;118831;-70
2021/07/25 01:00:22;;;;;;;24.80;15.60;;;;;;;22.04;61.37;100703.03;4928955;28;123977;-70
2021/07/25 01:03:03;;;;;;;24.48;16.40;;;;;;;22.06;61.38;100705.59;4931046;28;97330;-70
2021/07/25 01:05:43;;;;;;;22.95;15.80;;;;;;;22.05;61.26;100709.28;4925221;28;118824;-71
2021/07/25 01:08:20;;;;;;;23.23;14.90;;;;;;;22.05;61.32;100703.88;4944791;28;118239;-71
2021/07/25 01:10:52;;;;;;;25.27;15.27;;;;;;;22.04;61.20;100710.25;4928493;28;123620;-70
2021/07/25 01:13:27;;;;;;;19.95;13.73;;;;;;;22.02;61.28;100706.84;4928777;28;123197;-70
2021/07/25 01:15:58;;;;;;;20.85;13.65;;;;;;;22.01;61.33;100702.47;4927446;28;119814;-71
2021/07/25 01:18:25;;;;;;;20.65;13.40;;;;;;;22.02;61.26;100693.38;4928812;28;119221;-71
2021/07/25 01:20:55;;;;;;;19.27;13.27;;;;;;;22.02;61.11;100693.38;4910022;28;123128;-72
2021/07/25 01:23:23;;;;;;;20.35;13.07;;;;;;;22.01;61.23;100686.28;4927414;28;123752;-71
2021/07/25 01:25:56;;;;;;;17.58;12.32;;;;;;;22.01;61.14;100691.69;4928223;28;120378;-71
2021/07/25 01:28:27;;;;;;;16.77;11.25;;;;;;;22.01;61.11;100695.22;4927010;28;120820;-72
2021/07/25 01:30:58;;;;;;;18.33;11.57;;;;;;;22.01;61.15;100697.06;4929896;28;123782;-72
2021/07/25 01:33:32;;;;;;;18.75;11.65;;;;;;;22.01;60.89;100691.69;4926334;28;124195;-72
2021/07/25 01:36:00;;;;;;;15.43;11.30;;;;;;;22.00;60.88;100692.66;4928513;28;118772;-72
2021/07/25 01:38:28;;;;;;;15.65;10.68;;;;;;;21.99;60.68;100682.91;4932542;28;118511;-71
2021/07/25 01:41:09;;;;;;;17.10;10.95;;;;;;;21.96;60.91;100684.88;4928037;28;123828;-71
2021/07/25 01:43:38;;;;;;;14.57;10.60;;;;;;;21.95;60.72;100688.56;4927718;28;124278;-72
2021/07/25 01:46:07;;;;;;;13.02;9.23;;;;;;;21.94;60.59;100683.31;4927157;28;120206;-72
2021/07/25 01:48:36;;;;;;;14.25;9.70;;;;;;;21.92;60.70;100686.16;4929265;28;118766;-72
2021/07/25 01:51:04;;;;;;;13.68;9.45;;;;;;;21.93;60.58;100695.97;4929342;28;123761;-72
2021/07/25 01:53:32;;;;;;;13.85;9.60;;;;;;;21.91;60.56;100700.66;4933126;28;123535;-72
2021/07/25 01:55:59;;;;;;;14.35;9.90;;;;;;;21.88;60.58;100700.94;4928015;28;118269;-72
2021/07/25 01:58:27;;;;;;;11.68;8.70;;;;;;;21.86;60.46;100694.84;4928813;28;119095;-72
2021/07/25 02:00:54;;;;;;;18.13;9.82;;;;;;;21.84;60.55;100696.84;4928765;28;124202;-72
2021/07/25 02:03:23;;;;;;;14.52;9.10;;;;;;;21.80;60.45;100690.03;4928118;28;123994;-73
2021/07/25 02:05:52;;;;;;;12.50;8.73;;;;;;;21.75;60.56;100681.53;4928185;28;119180;-72
2021/07/25 02:08:20;;;;;;;13.20;8.70;;;;;;;21.74;60.50;100679.84;4929595;28;117188;-73
2021/07/25 02:10:49;;;;;;;14.48;8.65;;;;;;;21.72;60.45;100689.94;4928637;28;124079;-72
2021/07/25 02:13:17;;;;;;;14.95;8.80;;;;;;;21.69;60.29;100690.22;4926873;28;124603;-72
2021/07/25 02:15:45;;;;;;;12.43;8.98;;;;;;;21.66;60.40;100687.78;4929574;28;120126;-72
2021/07/25 02:18:12;;;;;;;11.20;8.07;;;;;;;21.63;60.38;100688.94;4926743;28;118723;-71
2021/07/25 02:20:41;;;;;;;15.65;8.77;;;;;;;21.63;60.40;100671.94;4928632;28;124756;-71
2021/07/25 02:23:09;;;;;;;13.48;9.20;;;;;;;21.61;60.27;100671.22;4924284;28;123538;-71
2021/07/25 02:25:38;;;;;;;13.00;8.45;;;;;;;21.57;60.30;100662.56;4924618;28;120056;-71
2021/07/25 02:28:06;;;;;;;11.88;8.15;;;;;;;21.55;60.38;100669.97;4940939;28;118594;-71
2021/07/25 02:30:33;;;;;;;14.07;9.45;;;;;;;21.53;60.42;100667.41;4930791;28;123926;-72
2021/07/25 02:33:00;;;;;;;11.95;8.73;;;;;;;21.51;60.40;100664.00;4932757;28;123881;-71
2021/07/25 02:35:28;;;;;;;13.82;8.32;;;;;;;21.50;60.33;100666.84;4927577;28;120356;-71
2021/07/25 02:37:55;;;;;;;13.43;8.73;;;;;;;21.48;60.37;100658.91;4928294;28;119202;-71
2021/07/25 02:40:22;;;;;;;12.25;8.13;;;;;;;21.47;60.35;100661.72;4926286;28;124803;-71
2021/07/25 02:42:49;;;;;;;12.80;8.57;;;;;;;21.45;60.36;100658.34;4925987;28;124038;-71
2021/07/25 02:45:17;;;;;;;11.32;8.00;;;;;;;21.43;60.22;100669.22;4926981;28;119206;-71
2021/07/25 02:47:44;;;;;;;11.80;8.32;;;;;;;21.39;60.37;100665.13;4926992;28;119834;-71
2021/07/25 02:50:11;;;;;;;11.98;8.35;;;;;;;21.37;60.42;100667.09;4926623;28;124161;-71
2021/07/25 02:52:38;;;;;;;13.73;8.25;;;;;;;21.35;60.37;100663.72;4928173;28;123696;-71
2021/07/25 02:55:06;;;;;;;12.25;8.65;;;;;;;21.33;60.30;100665.69;4927915;28;120401;-71
2021/07/25 02:57:33;;;;;;;11.90;8.25;;;;;;;21.30;60.33;100663.28;4925761;28;118447;-71
2021/07/25 03:00:00;;;;;;;13.43;8.27;;;;;;;21.27;60.43;100655.50;4928648;28;124372;-71
2021/07/25 03:02:27;;;;;;;13.05;8.13;;;;;;;21.24;60.38;100661.16;4927967;28;123960;-71
2021/07/25 03:04:55;;;;;;;13.30;7.40;;;;;;;21.22;60.39;100655.91;4925787;28;120357;-71
2021/07/25 03:07:22;;;;;;;11.95;7.85;;;;;;;21.19;60.39;100665.16;4928458;28;119988;-71
2021/07/25 03:09:49;;;;;;;10.90;7.25;;;;;;;21.17;60.50;100667.13;4927189;28;124282;-71
2021/07/25 03:12:16;;;;;;;13.88;7.65;;;;;;;21.16;60.36;100660.03;4928248;28;124294;-71
2021/07/25 03:14:44;;;;;;;12.25;7.68;;;;;;;21.13;60.62;100660.31;4926147;28;119174;-71
2021/07/25 03:17:11;;;;;;;11.02;7.50;;;;;;;21.11;60.60;100651.50;4928095;28;119665;-71
2021/07/25 03:19:38;;;;;;;9.80;6.72;;;;;;;21.11;60.53;100656.91;4931339;28;124281;-71
2021/07/25 03:22:08;;;;;;;9.95;7.07;;;;;;;21.10;60.39;100660.59;4928103;28;124071;-71
2021/07/25 03:24:35;;;;;;;11.20;7.60;;;;;;;21.09;60.40;100658.88;4924775;28;119286;-71
2021/07/25 03:27:03;;;;;;;8.98;6.55;;;;;;;21.08;60.40;100651.81;4927027;28;119622;-71
2021/07/25 03:29:30;;;;;;;12.23;7.07;;;;;;;21.07;60.27;100660.88;4925652;28;124469;-71
2021/07/25 03:31:57;;;;;;;13.18;7.32;;;;;;;21.06;60.22;100653.81;4925871;28;123155;-71
2021/07/25 03:34:29;;;;;;;10.07;7.03;;;;;;;21.04;60.17;100661.19;4926110;28;119017;-71
2021/07/25 03:36:56;;;;;;;11.00;7.28;;;;;;;21.04;60.32;100661.19;4932031;28;119063;-71
2021/07/25 03:39:24;;;;;;;10.82;7.35;;;;;;;21.03;60.09;100659.47;4927656;28;123116;-71
2021/07/25 03:41:51;;;;;;;10.00;6.95;;;;;;;21.01;60.26;100653.38;4925068;28;123398;-71
2021/07/25 03:44:18;;;;;;;11.88;7.22;;;;;;;21.00;60.20;100659.75;4926767;28;118996;-71
2021/07/25 03:46:45;;;;;;;10.60;7.40;;;;;;;20.99;60.42;100661.59;4927455;28;118714;-71
2021/07/25 03:49:12;;;;;;;9.13;6.70;;;;;;;20.99;60.24;100664.28;4926497;28;124436;-71
2021/07/25 03:51:40;;;;;;;10.23;7.45;;;;;;;20.99;60.24;100666.97;4926412;28;124223;-71
2021/07/25 03:54:07;;;;;;;12.13;7.40;;;;;;;20.99;60.36;100663.44;4925604;28;120367;-71
2021/07/25 03:56:35;;;;;;;13.27;7.53;;;;;;;20.96;60.26;100664.59;4926800;28;119913;-71
2021/07/25 03:59:03;;;;;;;11.30;7.57;;;;;;;20.95;60.31;100668.25;4927575;28;123826;-71
2021/07/25 04:01:30;;;;;;;12.60;6.95;;;;;;;20.95;60.34;100664.72;4930206;28;122070;-71
2021/07/25 04:03:57;;;;;;;10.15;7.30;;;;;;;20.96;60.44;100658.31;4929716;28;119356;-71
2021/07/25 04:06:25;;;;;;;11.88;7.15;;;;;;;20.96;60.42;100663.72;4929706;28;119315;-71
2021/07/25 04:08:52;;;;;;;12.57;7.32;;;;;;;20.95;60.44;100656.63;4930480;28;124211;-71
2021/07/25 04:11:20;;;;;;;12.43;7.63;;;;;;;20.96;60.40;100658.31;4929361;28;123763;-71
2021/07/25 04:13:48;;;;;;;10.75;7.30;;;;;;;20.94;60.40;100660.31;4931004;28;119507;-71
2021/07/25 04:16:16;;;;;;;11.85;7.65;;;;;;;20.95;60.39;100662.03;4930784;28;119694;-71
2021/07/25 04:18:43;;;;;;;12.68;7.82;;;;;;;20.96;60.56;100669.09;4929475;28;123895;-71
2021/07/25 04:21:10;;;;;;;10.95;7.60;;;;;;;20.94;60.68;100661.16;4930199;28;123798;-71
2021/07/25 04:23:39;;;;;;;10.57;7.55;;;;;;;20.96;60.47;100669.09;4929865;28;119599;-71
2021/07/25 04:26:07;;;;;;;10.98;7.60;;;;;;;20.96;60.66;100674.47;4928763;28;120632;-71
2021/07/25 04:28:35;;;;;;;11.40;7.40;;;;;;;20.96;60.46;100669.97;4930173;28;123704;-71
2021/07/25 04:31:02;;;;;;;12.65;7.93;;;;;;;20.98;60.57;100673.38;4929900;28;124701;-72
2021/07/25 04:33:30;;;;;;;11.18;7.55;;;;;;;20.99;60.57;100675.06;4930683;28;119039;-71
2021/07/25 04:35:58;;;;;;;11.85;7.80;;;;;;;21.00;60.62;100675.91;4931367;28;119103;-71
2021/07/25 04:38:25;;;;;;;11.45;7.78;;;;;;;21.01;60.54;100672.22;4930648;28;124126;-72
2021/07/25 04:41:00;;;;;;;11.40;7.55;;;;;;;21.02;60.64;100673.06;4939889;28;122793;-71
2021/07/25 04:43:30;;;;;;;13.30;8.23;;;;;;;21.03;60.68;100670.25;4928791;28;120059;-71
2021/07/25 04:46:14;;;;;;;11.48;7.22;;;;;;;21.05;60.51;100673.63;4927837;28;120277;-71
2021/07/25 04:48:53;;;;;;;11.65;8.10;;;;;;;21.07;60.62;100665.41;4927947;28;123867;-71
2021/07/25 04:51:22;;;;;;;13.48;8.38;;;;;;;21.07;60.70;100671.66;4928300;28;123798;-71
2021/07/25 04:53:52;;;;;;;11.90;8.50;;;;;;;21.07;60.51;100670.81;4928530;28;119681;-71
2021/07/25 04:56:20;;;;;;;12.82;7.93;;;;;;;21.06;60.50;100669.09;4927284;28;118932;-71
2021/07/25 04:58:52;;;;;;;14.65;9.02;;;;;;;21.06;60.37;100675.34;4928356;28;124707;-71
2021/07/25 05:01:28;;;;;;;14.32;8.48;;;;;;;21.04;60.67;100671.94;4927904;28;122676;-71
2021/07/25 05:03:56;;;;;;;13.68;9.25;;;;;;;21.06;60.52;100664.59;4934393;28;118959;-71
2021/07/25 05:06:23;;;;;;;13.05;9.30;;;;;;;21.07;60.79;100666.25;4929266;28;118529;-71
2021/07/25 05:08:50;;;;;;;14.35;9.32;;;;;;;21.10;60.61;100676.75;4929858;28;124158;-71
2021/07/25 05:11:26;;;;;;;13.65;8.75;;;;;;;21.11;60.58;100672.22;4929222;28;123930;-71
2021/07/25 05:13:58;;;;;;;12.20;8.13;;;;;;;21.10;60.65;100671.38;4927565;28;119097;-71
2021/07/25 05:16:46;;;;;;;12.77;8.10;;;;;;;21.10;60.73;100679.47;4925054;28;118769;-71
2021/07/25 05:19:43;;;;;;;10.52;7.60;;;;;;;21.13;60.77;100681.84;4926337;28;124209;-71
2021/07/25 05:22:33;;;;;;;10.93;8.18;;;;;;;21.17;60.94;100680.59;4911252;28;123865;-71
2021/07/25 05:25:03;;;;;;;12.60;8.55;;;;;;;21.23;60.90;100683.69;4927052;28;118800;-71
2021/07/25 05:27:41;;;;;;;11.23;8.10;;;;;;;21.27;60.85;100687.81;4928870;28;118942;-71
2021/07/25 05:30:10;;;;;;;12.57;8.68;;;;;;;21.32;60.78;100680.16;4942829;28;123328;-71
2021/07/25 05:32:38;;;;;;;13.50;8.60;;;;;;;21.36;60.99;100692.34;4926981;28;123865;-71
2021/07/25 05:35:06;;;;;;;13.77;8.52;;;;;;;21.40;60.95;100683.00;4925970;28;120466;-71
2021/07/25 05:37:34;;;;;;;12.82;8.30;;;;;;;21.45;60.62;100690.66;4929148;28;120039;-71
2021/07/25 05:40:01;;;;;;;15.18;9.02;;;;;;;21.48;60.76;100691.22;4929051;28;124369;-71
2021/07/25 05:42:28;;;;;;;11.98;7.97;;;;;;;21.51;60.84;100696.34;4931224;28;123775;-71
2021/07/25 05:44:55;;;;;;;13.52;8.90;;;;;;;21.55;60.77;100697.75;4929328;28;119079;-71
2021/07/25 05:47:22;;;;;;;14.57;8.82;;;;;;;21.57;60.58;100695.75;4932592;28;119095;-71
2021/07/25 05:49:49;;;;;;;14.10;8.77;;;;;;;21.59;60.67;100698.31;4927220;28;123434;-71
2021/07/25 05:52:17;;;;;;;13.88;9.27;;;;;;;21.61;60.63;100695.47;4928829;28;125660;-69
2021/07/25 05:54:44;;;;;;;14.07;8.77;;;;;;;21.63;60.74;100693.50;4927126;28;119778;-69
2021/07/25 05:57:11;;;;;;;13.52;8.77;;;;;;;21.66;60.59;100698.56;4929334;28;119724;-69
2021/07/25 05:59:38;;;;;;;13.93;8.77;;;;;;;21.69;60.75;100687.50;4927916;28;124580;-69
2021/07/25 06:02:06;;;;;;;14.07;8.95;;;;;;;21.73;60.80;100688.91;4933840;28;122754;-69
2021/07/25 06:04:33;;;;;;;13.43;9.23;;;;;;;21.75;60.64;100682.38;4929277;28;119634;-69
2021/07/25 06:07:00;;;;;;;13.73;8.80;;;;;;;21.79;60.72;100688.31;4936093;28;119356;-69
2021/07/25 06:09:27;;;;;;;16.15;9.40;;;;;;;21.81;60.85;100688.19;4937170;28;124450;-70
2021/07/25 06:11:56;;;;;;;14.20;9.13;;;;;;;21.83;60.76;100689.75;4935721;28;123789;-72
2021/07/25 06:14:23;;;;;;;15.00;9.38;;;;;;;21.86;61.15;100684.06;4934758;28;118507;-69
2021/07/25 06:16:50;;;;;;;13.70;9.13;;;;;;;21.92;60.92;100686.16;4942636;28;118116;-69
2021/07/25 06:19:17;;;;;;;15.88;9.65;;;;;;;21.96;60.78;100690.28;4933063;28;124019;-69
2021/07/25 06:21:47;;;;;;;14.13;9.60;;;;;;;22.01;61.10;100686.28;4931115;28;124291;-70
2021/07/25 06:24:14;;;;;;;15.55;9.27;;;;;;;22.05;60.94;100687.69;4919724;28;119642;-69
2021/07/25 06:26:42;;;;;;;12.77;9.00;;;;;;;22.12;60.92;100691.50;4937170;28;119856;-71
2021/07/25 06:29:09;;;;;;;17.00;10.25;;;;;;;22.20;61.01;100685.38;4928261;28;123898;-69
2021/07/25 06:31:36;;;;;;;15.50;9.90;;;;;;;22.30;61.21;100687.06;4928782;28;124426;-69
2021/07/25 06:34:03;;;;;;;13.15;8.68;;;;;;;22.41;61.13;100683.28;4929570;28;118403;-72
2021/07/25 06:36:30;;;;;;;11.55;8.23;;;;;;;22.51;60.93;100688.66;4926327;28;118965;-72
2021/07/25 06:38:57;;;;;;;13.02;8.60;;;;;;;22.60;60.90;100682.31;4927706;28;123427;-70
2021/07/25 06:41:24;;;;;;;12.88;8.63;;;;;;;22.69;60.96;100686.81;4945155;28;123790;-70
2021/07/25 06:43:51;;;;;;;11.70;8.05;;;;;;;22.83;60.96;100687.28;4916056;28;119051;-72
2021/07/25 06:46:18;;;;;;;11.68;7.57;;;;;;;22.98;60.96;100685.78;4940361;28;119578;-71
2021/07/25 06:48:45;;;;;;;12.32;7.68;;;;;;;23.13;60.75;100695.09;4933298;28;123920;-70
2021/07/25 06:51:13;;;;;;;11.75;8.20;;;;;;;23.29;60.91;100693.53;4935925;28;123932;-70
2021/07/25 06:53:40;;;;;;;11.55;8.00;;;;;;;23.45;60.38;100688.25;4924949;28;119751;-70
2021/07/25 06:56:08;;;;;;;12.13;8.02;;;;;;;23.59;60.38;100686.84;4923776;28;118416;-70
2021/07/25 06:58:35;;;;;;;12.55;7.82;;;;;;;23.74;59.90;100691.69;4921202;28;124055;-70
2021/07/25 07:01:02;;;;;;;12.43;7.63;;;;;;;23.88;59.71;100678.47;4927240;28;123803;-70
2021/07/25 07:03:30;;;;;;;10.48;7.47;;;;;;;24.04;59.69;100682.25;4929299;28;119480;-70
2021/07/25 07:05:57;;;;;;;10.80;7.55;;;;;;;24.21;59.38;100684.03;4940015;28;119187;-70
2021/07/25 07:08:24;;;;;;;11.18;7.25;;;;;;;24.37;59.25;100685.09;4929667;28;124280;-70
2021/07/25 07:10:51;;;;;;;10.18;7.03;;;;;;;24.53;58.70;100682.50;4929546;28;123641;-72
2021/07/25 07:13:18;;;;;;;9.75;7.38;;;;;;;24.68;58.56;100680.00;4942340;28;119244;-70
2021/07/25 07:15:47;;;;;;;12.10;7.20;;;;;;;24.78;57.85;100679.84;4939534;28;120138;-69
2021/07/25 07:18:15;;;;;;;9.88;6.90;;;;;;;24.92;58.11;100681.91;4941619;28;124668;-70
2021/07/25 07:20:42;;;;;;;12.07;7.05;;;;;;;25.08;57.99;100686.50;4929610;28;124644;-70
2021/07/25 07:23:11;;;;;;;9.68;7.05;;;;;;;25.24;57.56;100685.69;4938552;28;119093;-70
2021/07/25 07:25:47;;;;;;;12.73;6.43;;;;;;;25.40;57.50;100684.84;4924716;28;118941;-70
2021/07/25 07:28:16;;;;;;;10.43;7.05;;;;;;;25.56;57.12;100689.41;4924715;28;123803;-71
2021/07/25 07:30:44;;;;;;;10.57;6.57;;;;;;;25.73;56.74;100695.66;4929688;28;123240;-71
2021/07/25 07:33:16;;;;;;;10.05;6.20;;;;;;;25.86;56.51;100700.56;4928603;28;119281;-70
2021/07/25 07:35:44;;;;;;;10.45;6.40;;;;;;;25.97;55.79;100702.94;4931489;28;118969;-70
2021/07/25 07:38:13;;;;;;;9.50;6.00;;;;;;;26.07;55.81;100703.63;4931882;28;124521;-70
2021/07/25 07:40:42;;;;;;;9.88;6.25;;;;;;;26.18;55.70;100700.53;4930044;28;124961;-70
2021/07/25 07:43:10;;;;;;;9.10;6.30;;;;;;;26.28;55.54;100699.47;4930707;28;118783;-70
2021/07/25 07:45:39;;;;;;;8.27;6.00;;;;;;;26.40;55.33;100703.47;4931990;28;119720;-72
2021/07/25 07:48:07;;;;;;;10.15;7.05;;;;;;;26.54;55.17;100705.47;4932261;28;123825;-72
2021/07/25 07:50:34;;;;;;;8.02;5.90;;;;;;;26.66;54.98;100702.38;4932302;28;124351;-70
2021/07/25 07:53:01;;;;;;;8.95;6.00;;;;;;;26.78;54.79;100695.50;4949337;28;119040;-70
2021/07/25 07:55:28;;;;;;;10.75;6.20;;;;;;;26.91;54.04;100703.91;4950282;28;118999;-71
2021/07/25 07:57:55;;;;;;;10.10;6.57;;;;;;;27.02;53.85;100707.25;4928266;28;124341;-70
2021/07/25 08:00:23;;;;;;;10.30;6.18;;;;;;;27.11;53.52;100708.91;4934455;28;124673;-71
2021/07/25 08:02:50;;;;;;;9.50;6.32;;;;;;;27.20;53.16;100710.53;4943976;28;120043;-72
2021/07/25 08:05:20;;;;;;;8.70;6.13;;;;;;;27.26;53.47;100704.41;4923830;28;120686;-70
2021/07/25 08:07:50;;;;;;;8.93;6.38;;;;;;;27.34;53.11;100712.47;4928767;28;123895;-70
2021/07/25 08:10:17;;;;;;;9.15;6.30;;;;;;;27.44;52.66;100711.38;4939330;28;123799;-71
2021/07/25 08:12:44;;;;;;;7.50;5.60;;;;;;;27.48;52.98;100712.69;4935828;28;120184;-70
2021/07/25 08:15:12;;;;;;;8.80;6.22;;;;;;;27.56;52.71;100715.38;4920211;28;118954;-70
2021/07/25 08:17:40;;;;;;;12.20;6.95;;;;;;;27.66;52.32;100710.50;4930737;28;124099;-70
2021/07/25 08:20:07;;;;;;;8.02;5.85;;;;;;;27.73;52.26;100708.75;4918594;28;124587;-71
2021/07/25 08:22:35;;;;;;;8.35;5.28;;;;;;;27.81;52.28;100706.97;4942504;28;119513;-70
2021/07/25 08:25:04;;;;;;;7.50;5.40;;;;;;;27.88;51.94;100713.38;4950407;28;119170;-70
2021/07/25 08:27:32;;;;;;;6.88;5.05;;;;;;;27.96;51.67;100710.59;4935007;28;124706;-74
2021/07/25 08:29:59;;;;;;;7.70;5.00;;;;;;;28.04;51.46;100713.22;4918086;28;123396;-70
2021/07/25 08:32:26;;;;;;;7.45;5.00;;;;;;;28.09;51.25;100716.22;4926369;28;119429;-70
2021/07/25 08:34:53;;;;;;;9.00;5.55;;;;;;;28.19;51.13;100717.81;4950267;28;117306;-70
2021/07/25 08:37:20;;;;;;;7.18;5.18;;;;;;;28.27;51.02;100717.72;4932067;28;123837;-70
2021/07/25 08:39:48;;;;;;;7.50;4.85;;;;;;;28.36;51.02;100716.59;4932136;28;123826;-70
2021/07/25 08:42:19;;;;;;;7.90;4.40;;;;;;;28.45;50.36;100710.00;4931641;28;119349;-70
2021/07/25 08:44:54;;;;;;;7.82;4.95;;;;;;;28.54;49.91;100719.81;4930848;28;118601;-70
2021/07/25 08:47:35;;;;;;;9.05;5.07;;;;;;;28.61;50.37;100716.31;4931291;28;124074;-70
2021/07/25 08:50:12;;;;;;;7.72;4.70;;;;;;;28.65;49.78;100712.16;4919461;28;124315;-71
2021/07/25 08:52:45;;;;;;;7.97;4.72;;;;;;;28.71;50.01;100725.03;4931838;28;119461;-70
2021/07/25 08:55:15;;;;;;;7.28;4.70;;;;;;;28.77;49.63;100713.38;4964686;28;119570;-70
2021/07/25 08:57:45;;;;;;;8.30;4.88;;;;;;;28.82;49.53;100719.09;4931390;28;122166;-70
2021/07/25 09:00:14;;;;;;;7.55;4.65;;;;;;;28.88;49.12;100721.03;4941671;28;123351;-72
2021/07/25 09:02:42;;;;;;;5.43;4.05;;;;;;;28.92;48.78;100713.31;4933507;28;119641;-70
2021/07/25 09:05:10;;;;;;;5.22;3.78;;;;;;;28.98;48.60;100719.88;4931322;28;119243;-70
2021/07/25 09:07:40;;;;;;;6.10;4.10;;;;;;;29.03;48.69;100711.97;4914022;28;123198;-71
2021/07/25 09:10:11;;;;;;;7.22;3.83;;;;;;;29.09;48.73;100722.09;4919724;28;124767;-71
2021/07/25 09:12:39;;;;;;;8.18;4.05;;;;;;;29.15;48.28;100721.34;4930662;28;120138;-70
2021/07/25 09:15:09;;;;;;;5.50;3.63;;;;;;;29.22;47.84;100726.88;4934684;28;118865;-70
2021/07/25 09:17:37;;;;;;;5.00;3.58;;;;;;;29.26;47.71;100723.56;4936696;28;126386;-71
2021/07/25 09:20:28;;;;;;;5.80;3.80;;;;;;;29.25;47.37;100727.34;4943754;28;123692;-72
2021/07/25 09:22:59;;;;;;;4.45;3.38;;;;;;;29.24;47.19;100730.25;4928779;28;118075;-71
2021/07/25 09:25:29;;;;;;;7.82;3.65;;;;;;;29.24;47.37;100725.63;4919345;28;119110;-70
2021/07/25 09:27:56;;;;;;;5.10;3.25;;;;;;;29.27;47.57;100722.53;4930648;28;124052;-70
2021/07/25 09:30:25;;;;;;;4.90;3.15;;;;;;;29.31;47.63;100726.56;4927644;28;123913;-70
2021/07/25 09:32:52;;;;;;;4.70;3.30;;;;;;;29.38;47.45;100725.75;4934956;28;118875;-70
2021/07/25 09:35:26;;;;;;;6.32;3.28;;;;;;;29.48;47.64;100732.59;4928117;28;119219;-70
2021/07/25 09:37:54;;;;;;;6.20;3.13;;;;;;;29.61;47.32;100734.59;4925139;28;124031;-71
2021/07/25 09:40:26;;;;;;;6.97;3.67;;;;;;;29.69;47.09;100723.53;4930186;28;123867;-71
2021/07/25 09:43:06;;;;;;;6.15;4.00;;;;;;;29.75;47.01;100715.63;4945302;28;119943;-70
2021/07/25 09:45:54;;;;;;;6.28;4.00;;;;;;;29.77;46.94;100724.47;4917849;28;120233;-71
2021/07/25 09:48:22;;;;;;;6.25;3.83;;;;;;;29.83;46.75;100723.66;4936268;28;124473;-71
2021/07/25 09:50:51;;;;;;;6.93;3.72;;;;;;;29.83;46.66;100712.72;4929895;28;123888;-72
2021/07/25 09:53:19;;;;;;;5.13;3.25;;;;;;;29.83;46.63;100718.19;4929247;28;118964;-70
2021/07/25 09:55:47;;;;;;;5.53;3.63;;;;;;;29.86;47.12;100717.81;4945040;28;119422;-70
2021/07/25 09:58:15;;;;;;;6.03;3.58;;;;;;;29.95;46.83;100716.59;4948281;28;123190;-72
2021/07/25 10:00:46;;;;;;;7.75;3.80;;;;;;;30.02;46.39;100717.47;4948391;28;123044;-72
2021/07/25 10:03:32;;;;;;;7.88;3.55;;;;;;;30.09;46.42;100723.81;4941154;28;119151;-70
2021/07/25 10:06:19;;;;;;;4.53;2.92;;;;;;;30.18;46.01;100720.94;4929414;28;119664;-70
2021/07/25 10:08:46;;;;;;;6.30;3.30;;;;;;;30.20;46.31;100713.41;4937071;28;124543;-70
2021/07/25 10:11:21;;;;;;;4.00;3.00;;;;;;;30.27;45.76;100725.19;4925277;28;123084;-72
2021/07/25 10:13:48;;;;;;;;;;;;;;;30.31;46.54;100714.69;4947901;28;119329;-71
2021/07/25 10:16:18;;;;;;;4.15;3.08;;;;;;;30.38;45.93;100716.44;4945859;28;118860;-70
2021/07/25 10:18:47;;;;;;;7.90;3.38;;;;;;;30.42;45.72;100704.09;4928523;28;124203;-72
2021/07/25 10:21:15;;;;;;;6.57;3.03;;;;;;;30.53;45.53;100707.25;4927040;28;124522;-72
2021/07/25 10:23:57;;;;;;;4.97;2.95;;;;;;;30.60;45.37;100708.13;4925271;28;118340;-72
2021/07/25 10:26:28;;;;;;;5.18;3.05;;;;;;;30.66;44.76;100713.63;4930055;28;119170;-73
2021/07/25 10:28:57;;;;;;;5.70;3.10;;;;;;;30.73;44.80;100712.81;4928367;28;124488;-72
2021/07/25 10:31:26;;;;;;;4.90;3.05;;;;;;;30.76;44.66;100702.31;4922152;28;122169;-74
2021/07/25 10:33:54;;;;;;;4.68;2.95;;;;;;;30.77;44.48;100709.44;4927107;28;119298;-75
2021/07/25 10:36:23;;;;;;;3.95;2.55;;;;;;;30.81;44.90;100715.34;4929953;28;120185;-75
2021/07/25 10:38:50;;;;;;;5.60;2.78;;;;;;;30.84;44.57;100710.31;4928006;28;124238;-74
2021/07/25 10:41:24;;;;;;;4.60;2.53;;;;;;;30.88;44.36;100704.44;4929153;28;124563;-73
2021/07/25 10:43:51;;;;;;;4.82;3.17;;;;;;;30.94;44.02;100706.38;4927967;28;118902;-73
2021/07/25 10:46:21;;;;;;;4.43;2.30;;;;;;;31.04;44.30;100698.59;4927781;28;118694;-75
2021/07/25 10:49:09;;;;;;;8.07;2.53;;;;;;;31.13;43.91;100707.47;4928238;28;124115;-75
2021/07/25 10:51:54;;;;;;;4.38;2.38;;;;;;;31.22;43.66;100707.06;4927920;28;124362;-73
2021/07/25 10:54:21;;;;;;;;;;;;;;;31.31;44.77;100709.59;4927379;28;118801;-74
2021/07/25 10:57:10;;;;;;;4.28;2.53;;;;;;;31.38;43.05;100716.78;4929008;28;119095;-74
2021/07/25 10:59:44;;;;;;;4.82;1.98;;;;;;;31.36;42.67;100707.06;4936242;28;124261;-72
2021/07/25 11:02:13;;;;;;;;;;;;;;;31.31;43.54;100704.97;4931073;28;124743;-73
2021/07/25 11:04:55;;;;;;;3.25;2.20;;;;;;;31.28;42.83;100710.84;4931096;28;120402;-73
2021/07/25 11:07:22;;;;;;;3.58;2.30;;;;;;;31.21;42.22;100699.91;4925794;28;118427;-75
2021/07/25 11:09:59;;;;;;;3.47;2.33;;;;;;;31.13;42.00;100697.34;4927129;28;124129;-75
2021/07/25 11:12:52;;;;;;;3.97;2.15;;;;;;;31.02;41.90;100704.31;4927336;28;124653;-73
2021/07/25 11:15:32;;;;;;;3.17;1.90;;;;;;;30.97;41.61;100698.59;4926620;28;119364;-73
2021/07/25 11:18:07;;;;;;;3.90;2.03;;;;;;;30.96;41.61;100696.06;4925913;28;118796;-74
2021/07/25 11:20:35;;;;;;;;;;;;;;;30.97;42.89;100692.31;4926683;28;124803;-72
2021/07/25 11:23:11;;;;;;;2.35;1.70;;;;;;;31.05;42.01;100683.88;4913716;28;122073;-73